Angel Fire, New Mexico
Current Conditions -  °F | °C
As of 8:55 AM on Friday 21 Nov 2014 (Local Time) from KAXX Reporting Station
Clear Clear  
Wind Chill:   Ceiling: Unl
Heat Index:   Visibility: 10mi
Dew Point:   Wind: 5mph
Humidity: 81%   Direction: 40°NE
Pressure: 30.13"   Gusts: NA
Location:  36.39°N, 105.29°W
Report Text: KAXX 211555Z AUTO 04004KT 10SM CLR M13/M16 A3013 RMK AO2 T11321158
Loading
Personal Weather Stations






























Interactive Weather Map New forecast layout! Learn more

10-Day Weather Forecast

Advertisements
Track Severe Weather on mobile